Flight Track Log - Related Links

Times and Time Zones

All times are in EST time to prevent confusion due to time zone crossing. See the N121JM flight status page for this flight to view local times or setup timezone preferences in your user account.

Time Position Orientation Groundspeed Altitude Reporting Facility
EST Latitude Longitude Course Direction KTS MPH feet Rate Location/Type
Sun 01:22:49 PM 45.7922 -111.1731 280° West 213 245 5,200  Level Salt Lake Center
Sun 01:23:37 PM 45.7997 -111.2367 280° West 207 238 7,800 3,248 Climbing Salt Lake Center
Sun 01:24:38 PM 45.7419 -111.2697 202° Southwest 230 265 11,100 2,903 Climbing Salt Lake Center
Sun 01:25:41 PM 45.6744 -111.2219 154° Southeast 277 319 13,800 1,951 Climbing Salt Lake Center
Sun 01:26:41 PM 45.6150 -111.1258 131° Southeast 345 397 15,100 1,525 Climbing Salt Lake Center
Sun 01:27:43 PM 45.6308 -110.9772 81° East 384 442 16,900 1,659 Climbing Salt Lake Center
Sun 01:28:44 PM 45.6475 -110.8061 82° East 443 510 18,500 1,610 Climbing Salt Lake Center
Sun 01:29:46 PM 45.6714 -110.6261 79° East 458 527 20,200 1,756 Climbing Salt Lake Center
Sun 01:30:47 PM 45.7017 -110.4544 76° East 463 533 22,100 1,463 Climbing Salt Lake Center
Sun 01:31:49 PM 45.7122 -110.2528 86° East 499 574 23,200 1,258 Climbing Salt Lake Center
Sun 01:32:51 PM 45.7067 -110.0411 92° East 526 605 24,700 1,610 Climbing Salt Lake Center
Sun 01:33:52 PM 45.6969 -109.7739 93° East 559 643 26,500 1,610 Climbing Salt Lake Center
Sun 01:34:54 PM 45.6864 -109.5528 94° East 560 644 28,000 1,452 Climbing Salt Lake Center
Sun 01:35:56 PM 45.6761 -109.3281 94° East 566 651 29,500 1,463 Climbing Salt Lake Center
Sun 01:36:57 PM 45.6656 -109.1022 94° East 568 654 31,000 1,463 Climbing Salt Lake Center
Sun 01:37:59 PM 45.6547 -108.8753 94° East 571 657 32,500 1,512 Climbing Salt Lake Center
Sun 01:39:00 PM 45.6439 -108.6494 94° East 569 655 34,100 1,512 Climbing Salt Lake Center
Sun 01:40:02 PM 45.6322 -108.4267 94° East 561 646 35,600 1,452 Climbing Salt Lake Center
Sun 01:41:04 PM 45.6200 -108.2036 94° East 562 647 37,100 1,452 Climbing Salt Lake Center
Sun 01:42:06 PM 45.6053 -107.9422 95° East 551 634 38,600 1,415 Climbing Salt Lake Center
Sun 01:43:07 PM 45.5925 -107.7258 95° East 547 629 40,000 1,122 Climbing Salt Lake Center
Sun 01:44:09 PM 45.5800 -107.5111 95° East 542 624 40,900 484 Climbing Salt Lake Center
Sun 01:45:11 PM 45.5664 -107.2986 95° East 540 621 41,000 48 Climbing Salt Lake Center
Sun 01:46:13 PM 45.5531 -107.0922 95° East 525 604 41,000  Level Salt Lake Center
Sun 01:47:15 PM 45.5394 -106.8842 95° East 525 604 41,000  Level Salt Lake Center
Sun 01:48:16 PM 45.5269 -106.6742 95° East 529 609 41,000  Level Salt Lake Center
Sun 01:49:18 PM 45.5128 -106.4600 95° East 539 620 41,000  Level Salt Lake Center
Sun 01:50:20 PM 45.4944 -106.2039 96° East 543 625 41,000  Level Salt Lake Center
Sun 01:51:22 PM 45.4786 -105.9897 96° East 544 626 41,000  Level Salt Lake Center
Sun 01:52:24 PM 45.4619 -105.7750 96° East 546 628 41,000  Level Salt Lake Center
Sun 01:53:25 PM 45.4453 -105.5608 96° East 545 627 41,000  Level Salt Lake Center
Sun 01:54:27 PM 45.4283 -105.3472 96° East 544 626 41,000  Level Salt Lake Center
Sun 01:55:29 PM 45.4119 -105.1342 96° East 545 627 41,000  Level Salt Lake Center
Sun 01:56:31 PM 45.3933 -104.9203 97° East 545 627 41,000  Level Salt Lake Center
Sun 01:57:33 PM 45.3717 -104.6625 97° East 549 632 41,000  Level Salt Lake Center
Sun 01:58:35 PM 45.3558 -104.4681 97° East 546 628 41,000  Level Salt Lake Center
Sun 01:59:37 PM 45.3364 -104.2567 97° East 542 624 41,000  Level Salt Lake Center
Sun 02:00:39 PM 45.3167 -104.0431 97° East 546 628 41,000  Level Salt Lake Center
Sun 02:01:40 PM 45.2922 -103.7847 98° East 553 636 41,000  Level Salt Lake Center
Sun 02:02:42 PM 45.2717 -103.5711 98° East 550 633 41,000  Level Salt Lake Center
Sun 02:03:44 PM 45.2514 -103.3581 98° East 549 632 41,000  Level Salt Lake Center
Sun 02:04:24 PM 45.2397 -103.2325 97° East 551 634 41,000  Level Minneapolis Center
Sun 02:05:25 PM 45.2150 -103.0194 99° East 550 633 41,000  Level Minneapolis Center
Sun 02:06:26 PM 45.1886 -102.7664 98° East 546 628 41,000  Level Minneapolis Center
Sun 02:07:28 PM 45.1669 -102.5550 98° East 544 626 41,000  Level Minneapolis Center
Sun 02:08:29 PM 45.1450 -102.3419 98° East 545 627 41,000  Level Minneapolis Center
Sun 02:09:30 PM 45.1228 -102.1275 98° East 548 631 41,000  Level Minneapolis Center
Sun 02:10:32 PM 45.0997 -101.9133 99° East 550 633 41,000  Level Minneapolis Center
Sun 02:11:33 PM 45.0756 -101.7017 99° East 549 632 41,000  Level Minneapolis Center
Sun 02:12:34 PM 45.0597 -101.4900 96° East 546 628 41,000  Level Minneapolis Center
Sun 02:13:36 PM 45.0469 -101.2772 95° East 545 627 41,000  Level Minneapolis Center
Sun 02:14:37 PM 45.0333 -101.0622 95° East 547 629 41,000  Level Minneapolis Center
Sun 02:15:39 PM 45.0181 -100.8028 95° East 552 635 41,000  Level Minneapolis Center
Sun 02:16:40 PM 45.0025 -100.5881 96° East 551 634 41,000  Level Minneapolis Center
Sun 02:17:42 PM 44.9856 -100.3736 96° East 551 634 41,000  Level Minneapolis Center
Sun 02:18:43 PM 44.9694 -100.1614 96° East 550 633 41,000  Level Minneapolis Center
Sun 02:19:45 PM 44.9533 -99.9547 96° East 549 632 41,000  Level Minneapolis Center
Sun 02:20:46 PM 44.9364 -99.7489 97° East 546 628 41,000  Level Minneapolis Center
Sun 02:21:48 PM 44.9150 -99.4967 97° East 545 627 41,000  Level Minneapolis Center
Sun 02:22:49 PM 44.8975 -99.2867 97° East 543 625 41,000  Level Minneapolis Center
Sun 02:23:51 PM 44.8800 -99.0767 97° East 542 624 41,000  Level Minneapolis Center
Sun 02:24:52 PM 44.8608 -98.8675 97° East 540 621 41,000  Level Minneapolis Center
Sun 02:25:54 PM 44.8431 -98.6603 97° East 536 617 41,000  Level Minneapolis Center
Sun 02:26:55 PM 44.8242 -98.4517 97° East 537 618 41,000  Level Minneapolis Center
Sun 02:27:57 PM 44.8031 -98.2322 98° East 530 610 41,000  Level Minneapolis Center
Sun 02:28:59 PM 44.7833 -98.0283 98° East 527 606 41,000  Level Minneapolis Center
Sun 02:30:00 PM 44.7631 -97.8219 98° East 531 611 41,000  Level Minneapolis Center
Sun 02:31:02 PM 44.7425 -97.6169 98° East 531 611 41,000  Level Minneapolis Center
Sun 02:32:03 PM 44.7194 -97.3700 97° East 532 612 41,000  Level Minneapolis Center
Sun 02:33:05 PM 44.6969 -97.1667 99° East 527 606 41,000  Level Minneapolis Center
Sun 02:34:07 PM 44.6756 -96.9619 98° East 529 609 41,000  Level Minneapolis Center
Sun 02:35:08 PM 44.6533 -96.7564 99° East 531 611 41,000  Level Minneapolis Center
Sun 02:36:10 PM 44.6308 -96.5508 99° East 532 612 41,000  Level Minneapolis Center
Sun 02:37:11 PM 44.6078 -96.3442 99° East 534 615 41,000  Level Minneapolis Center
Sun 02:38:13 PM 44.5869 -96.1372 98° East 532 612 41,000  Level Minneapolis Center
Sun 02:39:15 PM 44.5628 -95.9319 99° East 530 610 41,000  Level Minneapolis Center
Sun 02:45:00 PM 44.4138 -94.7339 99° East 527 606 41,000  Level FlightAware ADS-B (LPVM)
Sun 02:47:36 PM 44.3438 -94.2386 101° East 527 606 41,000  Level FlightAware ADS-B (LPVM)
Sun 02:50:45 PM 44.2501 -93.5919 101° East 524 603 41,000  Level FlightAware ADS-B (LPVM)
Sun 02:52:06 PM 44.2091 -93.3210 102° East 522 601 41,000  Level FlightAware ADS-B (LPVM)
Sun 02:52:55 PM 44.1886 -93.1853 102° East 521 600 41,000  Level FlightAware ADS-B (LPVM)
Sun 02:53:38 PM 44.1816 -93.1395 102° East 522 601 41,000  Level FlightAware ADS-B (LPVM)
Sun 02:54:25 PM 44.1391 -92.8659 102° East 522 601 41,000  Level FlightAware ADS-B (LPVM)
Sun 02:58:26 PM 44.0134 -92.0763 102° East 524 603 41,000  Level FlightAware ADS-B (LPVM)
Sun 02:59:28 PM 43.9833 -91.8926 103° East 521 600 41,000  Level FlightAware ADS-B (LPVM)
Sun 03:01:26 PM 43.9139 -91.4893 103° East 521 600 41,000  Level FlightAware ADS-B (LPVM)
Sun 03:02:09 PM 43.8782 -91.3708 113° Southeast 515 593 41,000  Level FlightAware ADS-B (LPVM)
Sun 03:02:39 PM 43.8423 -91.2705 116° Southeast 516 594 41,000  Level FlightAware ADS-B (LPVM)
Sun 03:03:17 PM 43.8030 -91.1601 116° Southeast 516 594 41,000  Level FlightAware ADS-B (LPVM)
Sun 03:03:49 PM 43.7744 -91.0800 116° Southeast 515 593 41,000  Level FlightAware ADS-B (LPVM)
Sun 03:04:43 PM 43.7322 -90.9094 116° Southeast 518 596 41,000  Level Chicago Center
Sun 03:05:44 PM 43.7153 -90.7092 97° East 525 604 41,000  Level Chicago Center
Sun 03:06:46 PM 43.6994 -90.5092 96° East 525 604 41,000  Level Chicago Center
Sun 03:07:47 PM 43.6842 -90.3092 96° East 526 605 41,000  Level Chicago Center
Sun 03:08:48 PM 43.6675 -90.1206 97° East 518 596 41,000  Level Chicago Center
Sun 03:09:49 PM 43.6525 -89.9211 96° East 521 600 41,000  Level Chicago Center
Sun 03:10:50 PM 43.6319 -89.6833 97° East 519 597 41,000  Level Chicago Center
Sun 03:11:51 PM 43.6169 -89.4869 96° East 518 596 41,000  Level Chicago Center
Sun 03:12:53 PM 43.5989 -89.2900 97° East 517 595 41,000  Level Chicago Center
Sun 03:13:54 PM 43.5808 -89.0939 97° East 517 595 41,000  Level Chicago Center
Sun 03:14:55 PM 43.5622 -88.8983 97° East 515 593 41,000  Level Chicago Center
Sun 03:15:56 PM 43.5444 -88.7033 97° East 513 590 41,000  Level Chicago Center
Sun 03:16:57 PM 43.5253 -88.5000 97° East 517 595 41,000  Level Chicago Center
Sun 03:17:58 PM 43.5056 -88.2997 98° East 516 594 41,000  Level Chicago Center
Sun 03:19:00 PM 43.4858 -88.1025 98° East 517 595 41,000  Level Chicago Center
Sun 03:20:01 PM 43.4656 -87.9086 98° East 513 590 41,000  Level Chicago Center
Sun 03:21:02 PM 43.4458 -87.7161 98° East 509 586 41,000  Level Chicago Center
Sun 03:22:03 PM 43.4253 -87.5219 98° East 513 590 41,000  Level Chicago Center
Sun 03:23:04 PM 43.4042 -87.3064 98° East 521 600 41,000  Level Chicago Center
Sun 03:24:06 PM 43.3833 -87.1100 98° East 521 600 41,000  Level Chicago Center
Sun 03:25:07 PM 43.3614 -86.9114 99° East 526 605 41,000  Level Chicago Center
Sun 03:26:08 PM 43.3392 -86.7144 99° East 525 604 41,000  Level Chicago Center
Sun 03:27:09 PM 43.3169 -86.5128 99° East 534 615 41,000  Level Chicago Center
Sun 03:28:10 PM 43.2933 -86.3047 99° East 545 627 41,000  Level Chicago Center
Sun 03:29:12 PM 43.2692 -86.0919 99° East 554 638 41,000  Level Chicago Center
Sun 03:30:13 PM 43.2444 -85.8811 99° East 552 635 41,000 98 Level Chicago Center
Sun 03:31:14 PM 43.2194 -85.6786 100° East 536 617 41,200 393 Climbing Chicago Center
Sun 03:32:15 PM 43.1947 -85.4825 100° East 523 602 41,800 634 Climbing Chicago Center
Sun 03:33:17 PM 43.1706 -85.2872 100° East 518 596 42,500 537 Climbing Chicago Center
Sun 03:34:18 PM 43.1467 -85.0894 99° East 524 603 42,900 246 Climbing Chicago Center
Sun 03:35:19 PM 43.1211 -84.8942 100° East 523 602 43,000 49 Climbing Chicago Center
Sun 03:36:21 PM 43.0919 -84.6589 100° East 523 602 43,000  Level Chicago Center
Sun 03:37:22 PM 43.0656 -84.4639 100° East 523 602 43,000  Level Chicago Center
Sun 03:38:23 PM 43.0400 -84.2703 100° East 519 597 43,000  Level Chicago Center
Sun 03:39:25 PM 43.0131 -84.0775 101° East 519 597 43,000  Level Chicago Center
Sun 03:40:36 PM 42.9803 -83.8556 101° East 522 601 43,000  Level Cleveland Center
Sun 03:41:37 PM 42.9244 -83.6769 113° Southeast 512 589 43,000  Level Cleveland Center
Sun 03:42:39 PM 42.8439 -83.5269 126° Southeast 494 568 43,000  Level Cleveland Center
Sun 03:43:40 PM 42.7600 -83.3772 127° Southeast 494 568 43,000  Level Cleveland Center
Sun 03:44:42 PM 42.6597 -83.1983 127° Southeast 492 566 43,000  Level Cleveland Center
Sun 03:45:43 PM 42.5742 -83.0469 127° Southeast 499 574 43,000  Level Cleveland Center
Sun 03:46:45 PM 42.4892 -82.8978 128° Southeast 498 573 43,000  Level Cleveland Center
Sun 03:47:47 PM 42.4178 -82.7367 121° Southeast 504 580 43,000  Level Cleveland Center
Sun 03:48:48 PM 42.3742 -82.5492 107° East 518 596 43,000  Level Cleveland Center
Sun 03:49:50 PM 42.3642 -82.3464 94° East 542 624 43,000  Level Cleveland Center
Sun 03:50:51 PM 42.3553 -82.1142 93° East 545 627 43,000  Level Cleveland Center
Sun 03:51:53 PM 42.3467 -81.9097 93° East 541 623 43,000  Level Cleveland Center
Sun 03:52:54 PM 42.3364 -81.7033 94° East 543 625 43,000  Level Cleveland Center
Sun 03:53:56 PM 42.3264 -81.5003 94° East 539 620 43,000  Level Cleveland Center
Sun 03:54:57 PM 42.3167 -81.3006 94° East 530 610 43,000  Level Cleveland Center
Sun 03:55:59 PM 42.3064 -81.0981 94° East 532 612 43,000  Level Cleveland Center
Sun 03:57:00 PM 42.2967 -80.8992 94° East 528 608 43,000  Level Cleveland Center
Sun 03:58:02 PM 42.2861 -80.6994 94° East 526 605 43,000  Level Cleveland Center
Sun 03:59:04 PM 42.2744 -80.5003 94° East 529 609 43,000  Level Cleveland Center
Sun 04:00:05 PM 42.2489 -80.3000 100° East 533 613 43,000  Level Cleveland Center
Sun 04:01:07 PM 42.2203 -80.1017 101° East 533 613 43,000  Level Cleveland Center
Sun 04:02:08 PM 42.1878 -79.8831 101° East 528 608 43,000  Level Cleveland Center
Sun 04:03:10 PM 42.1586 -79.6894 101° East 531 611 43,000  Level Cleveland Center
Sun 04:04:11 PM 42.1283 -79.4942 102° East 533 613 43,000  Level Cleveland Center
Sun 04:05:13 PM 42.0972 -79.3000 102° East 535 616 43,000  Level Cleveland Center
Sun 04:06:14 PM 42.0672 -79.1014 101° East 542 624 43,000  Level Cleveland Center
Sun 04:07:16 PM 42.0369 -78.9064 102° East 535 616 43,000 -1,215 Level Cleveland Center
Sun 04:12:49 PM 41.8433 -77.7697 102° East 537 618 35,000 -1,224 Descending FlightAware ADS-B (KWWD)
Sun 04:13:48 PM 41.7950 -77.5871 109° East 538 619 35,000 -722 Level FlightAware ADS-B (KWWD)
Sun 04:18:05 PM 41.5828 -76.7994 110° East 525 604 31,200 -990 Descending FlightAware ADS-B (KWWD)
Sun 04:18:39 PM 41.5544 -76.7006 110° East 533 613 30,200 -2,043 Descending New York Center
Sun 04:19:39 PM 41.5069 -76.5272 110° East 514 592 28,000 -1,950 Descending New York Center
Sun 04:20:39 PM 41.4664 -76.3717 109° East 508 585 26,300 -1,952 Descending New York Center
Sun 04:26:40 PM 41.1875 -75.4334 109° East 411 473 14,300 -2,122 Descending FlightAware ADS-B (KWWD)
Sun 04:27:12 PM 41.1619 -75.3578 114° Southeast 407 468 12,400 -2,622 Descending FlightAware ADS-B (KWWD)
Sun 04:28:39 PM 41.1061 -75.1906 114° Southeast 382 440 9,100 -2,082 Descending New York Center
Sun 04:29:39 PM 41.0722 -75.0894 114° Southeast 318 366 7,300 -1,450 Descending New York Center
Sun 04:30:39 PM 41.0381 -74.9936 115° Southeast 285 328 6,200 -650 Descending New York Center
Sun 04:31:39 PM 41.0042 -74.8981 115° Southeast 285 328 6,000 -750 Descending New York Center
Sun 04:32:39 PM 40.9719 -74.8000 113° Southeast 290 334 4,700 -540 Descending New York Center
Sun 04:38:30 PM 40.9597 -74.3146 113° Southeast 217 250 2,300 -441 Descending FlightAware ADS-B
Sun 04:38:46 PM 40.9655 -74.2964 67° East 211 243 2,000 -750 Descending FlightAware ADS-B
Sun 04:39:02 PM 40.9634 -74.2773 98° East 196 226 1,900 -171 Descending FlightAware ADS-B
Sun 04:39:21 PM 40.9516 -74.2645 141° Southeast 177 204 1,900  Level FlightAware ADS-B
Sun 04:39:31 PM 40.9435 -74.2663 190° South 176 203 1,900  Level FlightAware ADS-B
Sun 04:39:35 PM 40.9406 -74.2689 214° Southwest 178 205 1,900  Level FlightAware ADS-B
Sun 04:39:40 PM 40.9378 -74.2725 224° Southwest 179 206 1,900  Level FlightAware ADS-B
Sun 04:39:56 PM 40.9290 -74.2855 228° Southwest 181 208 1,900 102 Level FlightAware ADS-B
Sun 04:40:39 PM 40.9044 -74.3128 228° Southwest 101 116 2,000 -117 Climbing New York Center
Sun 04:41:39 PM 40.8678 -74.3464 215° Southwest 147 169 1,700 -450 Descending New York Center
Sun 04:42:39 PM 40.8358 -74.3778 217° Southwest 152 175 1,100 -300 Descending New York Center
Sun 04:43:39 PM 40.8078 -74.4092 220° Southwest 152 175 1,100  Level New York Center
Sun 04:45:00 PM 40.7993 -74.4149 191° South  Level Estimated
Sun 04:52:00 PM 40.7993 -74.4149 191° South  Level Estimated

Login

Don't have an account? Register now (free) for customized features, flight alerts, and more!